Detall de PIREP

Printer-friendly versionPDF version

[2013/09/21 13:56:00]
Flight IATA:CT3300
Pilot Number:012
Company ICAO:CAT
Aircraft Type:B738/F
PAX:160
Departing Airport: LEZG
Destination Airport: DAAG
Alternate Airport:DAAE
Online: VATSIM
Route:CMA UM176 ALT UL150 LABRO UA31 CHE UG26 ALR
Flight Level:F390
No Slew and time accel
No pause
Crash detect
Detect pilot in Cockpit between each 30 and 45 minutes
13:56 Zero fuel Weight: 122555 Lbs, Fuel Weight: 12654 Lbs
13:56 VATSIM:LEZG 211330Z 30003KT 230V360 CAVOK 26/03 Q1022
13:56 VATSIM:DAAG 211330Z 04018KT 9999 FEW020 28/18 Q1021
13:56 VOICE CATALONIAN
13:57 Parking Brakes off
14:01 Take-off
14:01 Take off Weight: 134702 Lbs
14:01 Wind: 296º @ 003 Knots Heading: 300º
14:01 POS N41º 39´ 49´´ W001º 01´ 40´´
14:01 Gear Up: 159 Knots
14:01 Flaps:3 at 159 Knots
14:01 Flaps:2 at 177 Knots
14:01 Flaps:1 at 191 Knots
14:02 Flaps:0 at 205 Knots
14:16 Wind:053º@044 Knots Heading: 163º Ground Speed: 496 Knots Altitude 29658 ft
14:25 TOC
14:25 Fuel Weight: 8012 Lb
14:31 Wind:331º@012 Knots Heading: 167º Ground Speed: 482 Knots Altitude 39261 ft
14:40 TOD
14:40 Fuel Weight: 6739 Lb
14:46 Wind:342º@008 Knots Heading: 129º Ground Speed: 449 Knots Altitude 23782 ft
15:01 Wind:045º@017 Knots Heading: 099º Ground Speed: 201 Knots Altitude 2998 ft
15:03 Flaps:1 at 200 Knots
15:04 Flaps:2 at 184 Knots
15:05 Flaps:3 at 174 Knots
15:05 Flaps:4 at 165 Knots
15:06 Gear Down: 162 Knots
15:06 Flaps:5 at 157 Knots
15:07 Flaps:6 at 154 Knots
15:07 Flaps:7 at 147 Knots
15:11 TouchDown:Rate -89 ft/min Speed: 127 Knots
15:11 VATSIM:DAAG 211430Z 05019KT 9999 FEW020 28/18 Q1020
15:11 Land
15:11 Wind:036º@017 Knots
15:11 Heading: 051º
15:11 Flight Duration: 01:10
15:11 Landing Weight: 127589 Lbs
15:11 POS N36º 42´ 17´´ E003º 14´ 18´´
15:18 Parking brakes on
15:18 Block to Block Duration: 01:21
15:18 Final Fuel: 4512 Lbls
15:18 Spent Fuel: 8141 Lbls
15:18 Flight Length: 444 NM
15:18 TOD Land Length: 150 NM

Exportar CSV

Powered by Drupal - Modified by Danger4k